Time;durP1;ratioP1;P1;durP2;ratioP2;P2;SDS_P1;SDS_P2;PMS_P1;PMS_P2;Temp;Humidity;BMP_temperature;BMP_pressure;BME280_temperature;BME280_humidity;BME280_pressure;Samples;Min_cycle;Max_cycle;Signal;HPM_P1;HPM_P2
2023/03/18 00:00:10;;;;;;;12.93;7.93;;;11.20;40.10;;;;;;5034780;28;20021;-65
2023/03/18 00:02:37;;;;;;;15.00;8.25;;;11.20;45.10;;;;;;5034922;28;20036;-65
2023/03/18 00:05:04;;;;;;;16.95;8.85;;;11.20;50.50;;;;;;5034616;28;20025;-65
2023/03/18 00:07:30;;;;;;;22.35;9.30;;;11.10;57.40;;;;;;5034834;28;20033;-65
2023/03/18 00:09:56;;;;;;;15.10;8.15;;;11.10;61.00;;;;;;5034830;28;20117;-65
2023/03/18 00:12:22;;;;;;;16.77;8.57;;;11.10;64.20;;;;;;5034713;28;20033;-65
2023/03/18 00:14:48;;;;;;;20.42;9.65;;;11.10;71.40;;;;;;5034831;28;20021;-65
2023/03/18 00:17:14;;;;;;;17.40;9.32;;;11.10;75.30;;;;;;5034755;28;20383;-65
2023/03/18 00:19:40;;;;;;;15.52;9.85;;;11.10;77.70;;;;;;5034216;28;20496;-65
2023/03/18 00:22:07;;;;;;;20.58;9.27;;;11.10;79.40;;;;;;5033889;28;20022;-65
2023/03/18 00:24:32;;;;;;;16.67;8.65;;;11.10;82.90;;;;;;5034144;28;20071;-65
2023/03/18 00:26:58;;;;;;;15.48;8.55;;;11.10;82.10;;;;;;5033989;28;20479;-66
2023/03/18 00:29:24;;;;;;;16.30;8.68;;;11.10;82.20;;;;;;5034126;28;20033;-65
2023/03/18 00:31:50;;;;;;;19.90;7.80;;;11.10;83.20;;;;;;5034463;28;20068;-65
2023/03/18 00:34:16;;;;;;;17.23;8.23;;;11.10;83.20;;;;;;5034249;28;20040;-65
2023/03/18 00:36:43;;;;;;;17.92;8.55;;;11.10;86.60;;;;;;5034257;28;20041;-65
2023/03/18 00:39:09;;;;;;;12.35;7.43;;;11.00;87.80;;;;;;5033811;28;20579;-65
2023/03/18 00:41:36;;;;;;;18.80;7.72;;;11.00;89.40;;;;;;5033886;28;20108;-65
2023/03/18 00:44:03;;;;;;;15.38;8.30;;;11.00;91.40;;;;;;5034195;28;20060;-65
2023/03/18 00:46:32;;;;;;;18.05;8.52;;;10.90;93.10;;;;;;5034172;28;20498;-65
2023/03/18 00:49:00;;;;;;;18.15;7.68;;;10.90;95.80;;;;;;5034154;28;20079;-65
2023/03/18 00:51:29;;;;;;;9.07;6.25;;;10.90;98.70;;;;;;5033673;28;20032;-65
2023/03/18 00:53:57;;;;;;;12.07;6.47;;;10.80;99.90;;;;;;5034040;28;20025;-65
2023/03/18 00:56:27;;;;;;;12.70;6.30;;;10.80;99.90;;;;;;5033987;28;20029;-65
2023/03/18 00:58:53;;;;;;;13.25;6.70;;;10.80;99.90;;;;;;5033469;28;20030;-68
2023/03/18 01:01:19;;;;;;;14.88;7.00;;;10.80;99.90;;;;;;5034161;28;20460;-65
2023/03/18 01:03:48;;;;;;;11.05;6.07;;;10.70;99.90;;;;;;5033924;28;20025;-65
2023/03/18 01:06:17;;;;;;;15.55;7.72;;;10.70;99.90;;;;;;5033809;28;20030;-65
2023/03/18 01:08:43;;;;;;;8.68;6.15;;;10.60;99.90;;;;;;5033872;28;20030;-65
2023/03/18 01:11:09;;;;;;;10.95;7.05;;;10.60;99.90;;;;;;5033833;28;20123;-65
2023/03/18 01:13:36;;;;;;;18.83;8.45;;;10.50;99.90;;;;;;5033245;28;20032;-65
2023/03/18 01:16:02;;;;;;;17.05;7.55;;;10.40;99.90;;;;;;5033562;28;20052;-65
2023/03/18 01:18:28;;;;;;;11.48;7.10;;;10.40;99.90;;;;;;5033351;28;20026;-65
2023/03/18 01:20:54;;;;;;;10.65;6.18;;;10.40;99.90;;;;;;5033605;28;20036;-65
2023/03/18 01:23:20;;;;;;;13.27;7.53;;;10.40;99.90;;;;;;5033551;28;20024;-65
2023/03/18 01:25:46;;;;;;;11.68;6.80;;;10.30;99.90;;;;;;5033467;28;20025;-66
2023/03/18 01:28:13;;;;;;;13.25;6.93;;;10.30;99.90;;;;;;5033405;28;20083;-65
2023/03/18 01:30:39;;;;;;;13.40;7.65;;;10.30;99.90;;;;;;5033466;28;20107;-65
2023/03/18 01:33:06;;;;;;;13.20;7.50;;;10.20;99.90;;;;;;5033069;28;20060;-65
2023/03/18 01:35:34;;;;;;;12.77;6.75;;;10.10;99.90;;;;;;5032960;28;20037;-65
2023/03/18 01:38:03;;;;;;;14.15;7.05;;;10.10;99.90;;;;;;5032995;28;20041;-65
2023/03/18 01:40:31;;;;;;;10.77;6.95;;;10.10;99.90;;;;;;5033346;28;20127;-65
2023/03/18 01:43:12;;;;;;;16.52;7.63;;;10.10;99.90;;;;;;5033206;28;20476;-65
2023/03/18 01:45:37;;;;;;;11.20;6.95;;;10.10;99.90;;;;;;5033041;28;20025;-65
2023/03/18 01:48:04;;;;;;;13.38;6.72;;;10.00;99.90;;;;;;5033201;28;20520;-65
2023/03/18 01:50:32;;;;;;;14.35;7.38;;;10.00;99.90;;;;;;5033099;28;20041;-65
2023/03/18 01:53:05;;;;;;;12.23;7.55;;;10.00;99.90;;;;;;5032965;28;20021;-65
2023/03/18 01:55:32;;;;;;;18.85;7.43;;;10.00;99.90;;;;;;5032774;28;20491;-65
2023/03/18 01:58:00;;;;;;;11.57;6.75;;;9.90;99.90;;;;;;5033120;28;20495;-65
2023/03/18 02:00:27;;;;;;;12.18;7.00;;;9.90;99.90;;;;;;5033082;28;20503;-65
2023/03/18 02:02:53;;;;;;;14.55;7.47;;;9.80;99.90;;;;;;5033167;28;20108;-65
2023/03/18 02:05:23;;;;;;;10.50;6.53;;;9.80;99.90;;;;;;5033311;28;20444;-66
2023/03/18 02:07:50;;;;;;;14.25;7.38;;;9.80;99.90;;;;;;5033173;28;20119;-65
2023/03/18 02:10:21;;;;;;;12.38;7.63;;;9.70;99.90;;;;;;5033133;28;20025;-65
2023/03/18 02:12:59;;;;;;;12.70;7.57;;;9.70;99.90;;;;;;5033115;28;20028;-65
2023/03/18 02:15:26;;;;;;;14.15;7.68;;;9.70;99.90;;;;;;5033134;28;20086;-65
2023/03/18 02:17:59;;;;;;;15.35;8.45;;;9.70;99.90;;;;;;5032918;28;20493;-65
2023/03/18 02:20:53;;;;;;;15.48;8.75;;;9.60;99.90;;;;;;5033030;28;20116;-66
2023/03/18 02:26:36;;;;;;;13.88;8.18;;;9.50;99.90;;;;;;5070626;28;20357;-63
2023/03/18 02:29:04;;;;;;;22.00;9.30;;;9.50;99.90;;;;;;5070207;28;20559;-64
2023/03/18 02:31:31;;;;;;;12.82;8.68;;;9.40;99.90;;;;;;5070611;28;20442;-64
2023/03/18 02:33:58;;;;;;;15.48;9.10;;;9.40;99.90;;;;;;5070584;28;20065;-64
2023/03/18 02:36:27;;;;;;;11.23;7.78;;;9.40;99.90;;;;;;5070249;28;20025;-64
2023/03/18 02:38:53;;;;;;;18.08;8.75;;;9.30;99.90;;;;;;5070507;28;20128;-64
2023/03/18 02:41:22;;;;;;;14.63;9.07;;;9.30;99.90;;;;;;5070330;28;20039;-64
2023/03/18 02:43:49;;;;;;;12.60;8.35;;;9.30;99.90;;;;;;5070541;28;20578;-64
2023/03/18 02:46:55;;;;;;;12.07;8.10;;;9.30;99.90;;;;;;5070351;28;20064;-64
2023/03/18 02:49:23;;;;;;;15.05;9.00;;;9.30;99.90;;;;;;5070259;28;20036;-64
2023/03/18 02:51:50;;;;;;;17.45;9.05;;;9.30;99.90;;;;;;5069849;28;20060;-64
2023/03/18 02:54:20;;;;;;;15.20;7.93;;;9.30;99.90;;;;;;5069938;28;20124;-64
2023/03/18 02:56:46;;;;;;;16.73;8.50;;;9.30;99.90;;;;;;5069919;28;20504;-64
2023/03/18 02:59:12;;;;;;;11.57;6.78;;;9.30;99.90;;;;;;5070155;28;20115;-64
2023/03/18 03:01:39;;;;;;;15.32;7.20;;;9.40;99.90;;;;;;5069903;28;20021;-64
2023/03/18 03:04:06;;;;;;;14.82;7.00;;;9.40;99.90;;;;;;5069872;28;20025;-64
2023/03/18 03:06:33;;;;;;;15.10;7.10;;;9.40;99.90;;;;;;5069967;28;20429;-64
2023/03/18 03:08:59;;;;;;;8.25;5.03;;;9.40;99.90;;;;;;5069939;28;20513;-64
2023/03/18 03:11:26;;;;;;;11.82;6.45;;;9.40;99.90;;;;;;5069427;28;20024;-64
2023/03/18 03:13:52;;;;;;;15.48;6.68;;;9.40;99.90;;;;;;5069394;28;20029;-64
2023/03/18 03:16:18;;;;;;;14.73;7.03;;;9.40;99.90;;;;;;5069962;28;20031;-64
2023/03/18 03:18:44;;;;;;;10.07;6.15;;;9.30;99.90;;;;;;5069710;28;20387;-64
2023/03/18 03:21:10;;;;;;;10.75;6.07;;;9.30;99.90;;;;;;5069585;28;20027;-64
2023/03/18 03:23:36;;;;;;;9.50;5.82;;;9.30;99.90;;;;;;5069515;28;20036;-64
2023/03/18 03:26:03;;;;;;;12.63;5.90;;;9.20;99.90;;;;;;5069150;28;20504;-64
2023/03/18 03:28:31;;;;;;;8.90;6.13;;;9.20;99.90;;;;;;5069083;28;20028;-64
2023/03/18 03:30:57;;;;;;;7.72;5.50;;;9.10;99.90;;;;;;5069395;28;20518;-64
2023/03/18 03:33:22;;;;;;;7.72;5.50;;;9.10;99.90;;;;;;5069350;28;20059;-64
2023/03/18 03:35:49;;;;;;;10.90;5.18;;;9.00;99.90;;;;;;5066119;28;20044;-63
2023/03/18 03:38:14;;;;;;;10.70;6.05;;;9.00;99.90;;;;;;5056081;28;20055;-64
2023/03/18 03:40:41;;;;;;;9.73;5.75;;;8.90;99.90;;;;;;5056109;28;20480;-64
2023/03/18 03:43:09;;;;;;;12.95;6.38;;;8.80;99.90;;;;;;5056008;28;20478;-65
2023/03/18 03:45:35;;;;;;;11.50;7.07;;;8.80;99.90;;;;;;5055802;28;20454;-64
2023/03/18 03:48:01;;;;;;;14.70;6.63;;;8.80;99.90;;;;;;5055930;28;20021;-64
2023/03/18 03:50:26;;;;;;;11.73;6.35;;;8.70;99.90;;;;;;5055845;28;20021;-64
2023/03/18 03:52:52;;;;;;;16.27;7.30;;;8.70;99.90;;;;;;5055767;28;20029;-64
2023/03/18 03:55:20;;;;;;;19.02;7.88;;;8.60;99.90;;;;;;5055738;28;20394;-64
2023/03/18 03:57:45;;;;;;;15.60;7.90;;;8.70;99.90;;;;;;5055564;28;20032;-64
2023/03/18 04:00:15;;;;;;;13.98;7.40;;;8.70;99.90;;;;;;5055754;28;20037;-64
2023/03/18 04:02:43;;;;;;;12.88;6.80;;;8.90;99.90;;;;;;5055704;28;20032;-64
2023/03/18 04:05:10;;;;;;;10.15;6.55;;;9.00;99.90;;;;;;5055437;28;20040;-64
2023/03/18 04:07:36;;;;;;;11.68;6.53;;;9.10;99.90;;;;;;5055656;28;20029;-64
2023/03/18 04:10:02;;;;;;;14.85;5.72;;;9.10;99.90;;;;;;5055422;28;20391;-64
2023/03/18 04:12:28;;;;;;;8.88;5.80;;;9.10;99.90;;;;;;5055355;28;20029;-64
2023/03/18 04:14:54;;;;;;;12.93;6.18;;;9.00;99.90;;;;;;5055477;28;20028;-64
2023/03/18 04:17:19;;;;;;;9.32;5.78;;;9.00;99.90;;;;;;5055393;28;20032;-64
2023/03/18 04:19:45;;;;;;;11.20;5.93;;;8.90;99.90;;;;;;5055603;28;20378;-64
2023/03/18 04:22:11;;;;;;;7.53;5.30;;;8.90;99.90;;;;;;5055312;28;20029;-64
2023/03/18 04:24:36;;;;;;;9.00;5.80;;;8.90;99.90;;;;;;5054928;28;20510;-64
2023/03/18 04:27:02;;;;;;;11.77;6.57;;;8.80;99.90;;;;;;5055257;28;20039;-64
2023/03/18 04:29:28;;;;;;;11.18;7.07;;;8.60;99.90;;;;;;5054992;28;20025;-63
2023/03/18 04:31:53;;;;;;;9.48;6.47;;;8.60;99.90;;;;;;5055279;28;20447;-64
2023/03/18 04:34:21;;;;;;;13.18;6.78;;;8.40;99.90;;;;;;5055227;28;20041;-63
2023/03/18 04:36:46;;;;;;;10.90;6.72;;;8.30;99.90;;;;;;5055020;28;20029;-64
2023/03/18 04:39:12;;;;;;;9.50;6.45;;;8.30;99.90;;;;;;5054597;28;20478;-64
2023/03/18 04:41:38;;;;;;;11.15;6.75;;;8.20;99.90;;;;;;5054993;28;20037;-64
2023/03/18 04:44:04;;;;;;;13.00;7.10;;;8.10;99.90;;;;;;5054877;28;20025;-64
2023/03/18 04:46:30;;;;;;;9.93;6.70;;;8.10;99.90;;;;;;5054835;28;20025;-64
2023/03/18 04:48:57;;;;;;;9.10;6.43;;;8.00;99.90;;;;;;5053821;28;20025;-64
2023/03/18 04:51:23;;;;;;;15.18;7.63;;;8.00;99.90;;;;;;5054489;28;20394;-64
2023/03/18 04:53:49;;;;;;;11.70;7.20;;;7.90;99.90;;;;;;5054632;28;20116;-64
2023/03/18 04:56:14;;;;;;;15.25;7.78;;;7.90;99.90;;;;;;5054676;28;20068;-64
2023/03/18 04:58:40;;;;;;;11.82;8.02;;;7.90;99.90;;;;;;5054527;28;20033;-64
2023/03/18 05:01:05;;;;;;;14.20;7.88;;;7.80;99.90;;;;;;5054606;28;20025;-64
2023/03/18 05:03:31;;;;;;;12.88;7.68;;;7.70;99.90;;;;;;5054479;28;20399;-64
2023/03/18 05:05:56;;;;;;;12.95;8.57;;;7.70;99.90;;;;;;5054264;28;20099;-64
2023/03/18 05:08:22;;;;;;;13.25;8.35;;;7.60;99.90;;;;;;5054454;28;20025;-64
2023/03/18 05:10:49;;;;;;;16.15;7.53;;;7.60;99.90;;;;;;5054467;28;20052;-64
2023/03/18 05:13:16;;;;;;;15.25;7.97;;;7.50;99.90;;;;;;5053899;28;20087;-64
2023/03/18 05:15:41;;;;;;;13.95;7.78;;;7.50;99.90;;;;;;5054274;28;20029;-64
2023/03/18 05:18:07;;;;;;;12.60;7.95;;;7.40;99.90;;;;;;5054210;28;20029;-64
2023/03/18 05:20:33;;;;;;;20.83;9.27;;;7.40;99.90;;;;;;5054132;28;20029;-64
2023/03/18 05:22:59;;;;;;;14.45;8.98;;;7.30;99.90;;;;;;5054220;28;20099;-64
2023/03/18 05:25:25;;;;;;;16.90;10.75;;;7.40;99.90;;;;;;5053714;28;20048;-65
2023/03/18 05:27:51;;;;;;;12.98;8.77;;;7.30;99.90;;;;;;5054192;28;20029;-64
2023/03/18 05:30:17;;;;;;;13.30;9.27;;;7.30;99.90;;;;;;5054090;28;20021;-64
2023/03/18 05:32:43;;;;;;;13.48;8.93;;;7.30;99.90;;;;;;5053667;28;20033;-64
2023/03/18 05:35:10;;;;;;;13.05;9.27;;;7.30;99.90;;;;;;5053981;28;20115;-64
2023/03/18 05:37:35;;;;;;;19.77;12.43;;;7.40;99.90;;;;;;5053859;28;20025;-64
2023/03/18 05:40:01;;;;;;;19.30;11.90;;;7.50;99.90;;;;;;5053831;28;20091;-64
2023/03/18 05:42:27;;;;;;;18.75;11.75;;;7.60;99.90;;;;;;5053883;28;20111;-64
2023/03/18 05:44:54;;;;;;;19.73;11.30;;;7.60;99.90;;;;;;5053509;28;20135;-65
2023/03/18 05:47:20;;;;;;;15.60;10.48;;;7.70;99.90;;;;;;5053846;28;20029;-64
2023/03/18 05:49:47;;;;;;;27.70;13.90;;;7.70;99.90;;;;;;5053251;28;20028;-66
2023/03/18 05:52:12;;;;;;;20.88;12.93;;;7.80;99.90;;;;;;5053612;28;20021;-64
2023/03/18 05:54:38;;;;;;;26.25;13.13;;;7.90;99.90;;;;;;5053564;28;20398;-64
2023/03/18 05:57:04;;;;;;;20.17;12.48;;;7.90;99.90;;;;;;5053501;28;20098;-64
2023/03/18 05:59:30;;;;;;;22.73;13.13;;;8.00;99.90;;;;;;5053158;28;20068;-64
2023/03/18 06:01:56;;;;;;;27.10;13.18;;;8.20;99.90;;;;;;5053483;28;20426;-64
2023/03/18 06:04:22;;;;;;;19.80;13.00;;;8.30;99.90;;;;;;5053436;28;20029;-64
2023/03/18 06:06:48;;;;;;;20.77;12.80;;;8.40;99.90;;;;;;5053531;28;20140;-64
2023/03/18 06:09:14;;;;;;;21.73;13.25;;;8.50;99.90;;;;;;5053320;28;20025;-64
2023/03/18 06:11:39;;;;;;;25.90;13.27;;;8.70;99.90;;;;;;5052922;28;20027;-64
2023/03/18 06:14:06;;;;;;;22.35;13.48;;;8.80;99.90;;;;;;5053229;28;20453;-65
2023/03/18 06:16:32;;;;;;;26.45;15.20;;;8.90;99.90;;;;;;5053166;28;20438;-64
2023/03/18 06:18:58;;;;;;;22.73;14.00;;;9.10;99.90;;;;;;5053181;28;20029;-64
2023/03/18 06:21:24;;;;;;;23.00;13.68;;;9.20;99.90;;;;;;5053390;28;20029;-65
2023/03/18 06:23:50;;;;;;;25.77;14.60;;;9.20;99.90;;;;;;5053200;28;20493;-67
2023/03/18 06:26:16;;;;;;;21.02;12.45;;;9.20;99.90;;;;;;5052874;28;20037;-64
2023/03/18 06:28:42;;;;;;;19.42;11.90;;;9.20;99.90;;;;;;5053055;28;20021;-64
2023/03/18 06:31:09;;;;;;;25.10;12.57;;;9.20;99.90;;;;;;5052957;28;20033;-64
2023/03/18 06:33:35;;;;;;;23.38;12.50;;;9.30;99.90;;;;;;5052972;28;20047;-64
2023/03/18 06:36:01;;;;;;;17.02;11.77;;;9.40;99.90;;;;;;5053013;28;20032;-64
2023/03/18 06:38:27;;;;;;;21.52;12.93;;;9.60;99.90;;;;;;5053191;28;20037;-65
2023/03/18 06:40:54;;;;;;;19.35;11.20;;;10.30;99.90;;;;;;5053153;28;20120;-65
2023/03/18 06:43:20;;;;;;;16.20;9.82;;;10.60;99.90;;;;;;5053071;28;20372;-64
2023/03/18 06:45:46;;;;;;;17.33;10.27;;;10.40;99.90;;;;;;5052790;28;20040;-64
2023/03/18 06:48:12;;;;;;;16.65;9.50;;;10.40;99.90;;;;;;5052980;28;20021;-65
2023/03/18 06:50:39;;;;;;;14.93;9.63;;;10.30;99.90;;;;;;5053003;28;20040;-65
2023/03/18 06:53:06;;;;;;;11.48;8.18;;;10.30;99.90;;;;;;5052622;28;20033;-64
2023/03/18 06:55:32;;;;;;;12.50;8.52;;;10.20;99.90;;;;;;5052954;28;20040;-64
2023/03/18 06:57:58;;;;;;;13.32;9.25;;;10.20;99.90;;;;;;5052808;28;20475;-65
2023/03/18 07:00:23;;;;;;;18.33;9.30;;;10.20;99.90;;;;;;5052979;28;20029;-66
2023/03/18 07:02:51;;;;;;;16.35;9.73;;;10.10;99.90;;;;;;5053096;28;20120;-65
2023/03/18 07:05:17;;;;;;;13.90;9.27;;;10.30;99.90;;;;;;5052571;28;20025;-64
2023/03/18 07:07:43;;;;;;;15.27;9.30;;;10.90;99.90;;;;;;5052870;28;20017;-65
2023/03/18 07:10:15;;;;;;;11.25;8.75;;;11.70;96.70;;;;;;5052613;28;20029;-64
2023/03/18 07:12:41;;;;;;;11.20;8.05;;;12.10;67.90;;;;;;5055442;28;20032;-64
2023/03/18 07:15:07;;;;;;;11.85;6.63;;;13.00;35.20;;;;;;5056579;28;20041;-64
2023/03/18 07:17:33;;;;;;;13.00;6.53;;;13.60;1.00;;;;;;5056336;28;20545;-65
2023/03/18 07:19:58;;;;;;;11.27;6.78;;;14.00;1.00;;;;;;5056544;28;20124;-64
2023/03/18 07:22:25;;;;;;;10.98;6.78;;;;;;;;;;5056452;28;20117;-65
2023/03/18 07:24:51;;;;;;;10.15;6.07;;;;;;;;;;5056086;28;20044;-65
2023/03/18 07:27:16;;;;;;;12.75;7.50;;;13.60;1.00;;;;;;5056149;28;20029;-64
2023/03/18 07:29:42;;;;;;;13.68;7.20;;;13.30;7.80;;;;;;5056249;28;20078;-65
2023/03/18 07:32:08;;;;;;;11.95;7.50;;;13.00;32.70;;;;;;5056229;28;20033;-64
2023/03/18 07:34:34;;;;;;;11.95;8.13;;;13.00;33.00;;;;;;5056188;28;20050;-64
2023/03/18 07:37:01;;;;;;;10.35;7.13;;;13.10;22.20;;;;;;5056110;28;20083;-64
2023/03/18 07:39:26;;;;;;;11.18;7.57;;;13.60;13.80;;;;;;5056229;28;20029;-65
2023/03/18 07:41:52;;;;;;;11.63;6.72;;;14.00;1.00;;;;;;5056152;28;20048;-64
2023/03/18 07:44:17;;;;;;;13.88;7.05;;;14.10;1.00;;;;;;5055762;28;20043;-64
2023/03/18 07:46:44;;;;;;;12.13;7.10;;;13.80;1.00;;;;;;5055952;28;20067;-64
2023/03/18 07:49:10;;;;;;;15.73;7.80;;;13.50;1.00;;;;;;5055943;28;20565;-64
2023/03/18 07:51:35;;;;;;;9.18;7.07;;;13.50;3.30;;;;;;5055894;28;20107;-64
2023/03/18 07:54:02;;;;;;;11.18;7.60;;;13.30;4.40;;;;;;5055544;28;20029;-64
2023/03/18 07:56:28;;;;;;;14.00;7.80;;;13.20;11.00;;;;;;5055610;28;20017;-65
2023/03/18 07:58:53;;;;;;;12.98;7.22;;;13.20;5.70;;;;;;5055852;28;20116;-64
2023/03/18 08:01:19;;;;;;;11.68;7.57;;;13.10;19.60;;;;;;5055293;28;20031;-64
2023/03/18 08:03:45;;;;;;;12.75;7.47;;;13.00;27.10;;;;;;5055259;28;20028;-64
2023/03/18 08:06:12;;;;;;;13.02;7.38;;;13.00;18.60;;;;;;5055336;28;20033;-64
2023/03/18 08:08:39;;;;;;;10.80;7.40;;;12.90;20.20;;;;;;5055520;28;20021;-64
2023/03/18 08:11:05;;;;;;;11.73;7.05;;;12.90;33.10;;;;;;5055627;28;20051;-64
2023/03/18 08:13:31;;;;;;;12.48;7.00;;;12.70;45.10;;;;;;5055535;28;20025;-64
2023/03/18 08:15:57;;;;;;;11.60;7.32;;;12.80;50.10;;;;;;5055404;28;20040;-64
2023/03/18 08:18:23;;;;;;;12.27;7.60;;;12.90;44.20;;;;;;5055348;28;20032;-64
2023/03/18 08:20:48;;;;;;;13.65;7.18;;;13.10;32.10;;;;;;5055141;28;20498;-64
2023/03/18 08:23:14;;;;;;;11.73;7.00;;;13.30;22.90;;;;;;5055052;28;20033;-64
2023/03/18 08:25:41;;;;;;;10.20;7.30;;;13.30;1.80;;;;;;5054511;28;20510;-64
2023/03/18 08:28:06;;;;;;;11.38;7.50;;;13.30;6.40;;;;;;5055261;28;20116;-64
2023/03/18 08:30:34;;;;;;;12.50;7.05;;;13.40;4.80;;;;;;5055183;28;20107;-64
2023/03/18 08:33:00;;;;;;;12.32;7.03;;;13.30;1.00;;;;;;5055229;28;20475;-64
2023/03/18 08:35:26;;;;;;;10.50;7.32;;;13.30;1.00;;;;;;5054720;28;20099;-64
2023/03/18 08:37:52;;;;;;;11.82;7.25;;;13.30;1.00;;;;;;5055022;28;20036;-65
2023/03/18 08:40:19;;;;;;;10.23;6.72;;;13.40;1.00;;;;;;5054975;28;20033;-64
2023/03/18 08:42:45;;;;;;;12.52;7.30;;;13.60;1.00;;;;;;5054944;28;20025;-64
2023/03/18 08:45:11;;;;;;;11.95;7.28;;;13.70;1.00;;;;;;5054664;28;20387;-64
2023/03/18 08:47:38;;;;;;;9.52;6.65;;;14.40;1.00;;;;;;5054892;28;20108;-64
2023/03/18 08:50:04;;;;;;;14.38;6.43;;;15.10;1.00;;;;;;5054725;28;20017;-64
2023/03/18 08:52:31;;;;;;;8.65;6.38;;;16.00;1.00;;;;;;5054695;28;20021;-64
2023/03/18 08:54:57;;;;;;;9.07;6.15;;;16.60;99.90;;;;;;5054612;28;20035;-64
2023/03/18 08:57:23;;;;;;;7.40;5.53;;;16.50;99.90;;;;;;5054459;28;20033;-64
2023/03/18 08:59:49;;;;;;;8.80;5.65;;;16.00;36.20;;;;;;5054543;28;20079;-64
2023/03/18 09:02:15;;;;;;;7.85;5.47;;;15.00;99.90;;;;;;5054591;28;20414;-64
2023/03/18 09:04:42;;;;;;;11.25;6.13;;;14.70;99.90;;;;;;5054402;28;20032;-64
2023/03/18 09:07:08;;;;;;;13.27;6.90;;;14.40;99.90;;;;;;5054320;28;20025;-64
2023/03/18 09:09:34;;;;;;;10.50;6.45;;;14.30;99.90;;;;;;5054443;28;20528;-64
2023/03/18 09:12:00;;;;;;;12.52;6.40;;;14.30;99.90;;;;;;5054093;28;20025;-64
2023/03/18 09:14:26;;;;;;;10.98;6.85;;;14.20;99.90;;;;;;5054406;28;20067;-66
2023/03/18 09:16:52;;;;;;;10.43;6.35;;;14.30;99.90;;;;;;5053774;28;20031;-64
2023/03/18 09:19:18;;;;;;;10.50;5.97;;;14.20;99.90;;;;;;5053803;28;20033;-64
2023/03/18 09:21:43;;;;;;;9.52;5.97;;;14.00;99.90;;;;;;5054149;28;20076;-64
2023/03/18 09:24:10;;;;;;;23.77;7.30;;;14.00;1.00;;;;;;5053855;28;20041;-64
2023/03/18 09:26:35;;;;;;;7.72;5.90;;;14.00;1.00;;;;;;5054036;28;20471;-64
2023/03/18 09:29:01;;;;;;;16.92;6.72;;;13.80;1.00;;;;;;5053983;28;20066;-64
2023/03/18 09:31:27;;;;;;;12.18;6.80;;;13.80;1.00;;;;;;5054076;28;20029;-65
2023/03/18 09:33:52;;;;;;;9.27;6.72;;;13.80;1.00;;;;;;5053519;28;20025;-64
2023/03/18 09:36:19;;;;;;;11.65;6.13;;;13.80;1.00;;;;;;5053577;28;20029;-64
2023/03/18 09:38:44;;;;;;;12.10;6.28;;;13.90;1.00;;;;;;5053903;28;20112;-65
2023/03/18 09:44:13;;;;;;;10.75;6.07;;;14.00;1.00;;;;;;5111181;27;20302;-64
2023/03/18 09:49:46;;;;;;;8.77;5.63;;;13.80;1.00;;;;;;5111155;27;20377;-64
2023/03/18 09:52:21;;;;;;;12.13;5.75;;;14.00;1.00;;;;;;5110893;28;20395;-64
2023/03/18 09:55:20;;;;;;;6.47;4.80;;;14.00;99.90;;;;;;5111189;28;20019;-64
2023/03/18 09:57:48;;;;;;;8.75;4.60;;;14.10;99.90;;;;;;5111070;28;20115;-64
2023/03/18 10:00:28;;;;;;;12.68;5.00;;;14.20;99.90;;;;;;5110877;28;20024;-64
2023/03/18 10:03:26;;;;;;;6.22;4.72;;;14.10;99.90;;;;;;5111082;28;20031;-64
2023/03/18 10:05:57;;;;;;;9.02;5.18;;;14.00;99.90;;;;;;5110918;28;20028;-64
2023/03/18 10:11:11;;;;;;;11.52;5.72;;;14.00;99.90;;;;;;5111096;27;20766;-64
2023/03/18 10:13:44;;;;;;;13.20;6.93;;;14.40;99.90;;;;;;5111229;28;20118;-64
2023/03/18 10:16:18;;;;;;;10.15;6.15;;;14.50;99.90;;;;;;5111251;28;20036;-64
2023/03/18 10:18:44;;;;;;;8.73;5.28;;;14.90;99.90;;;;;;5110725;28;20111;-65
2023/03/18 10:21:31;;;;;;;9.23;5.85;;;15.00;1.00;;;;;;5111093;28;20135;-64
2023/03/18 10:27:18;;;;;;;11.38;6.03;;;15.10;1.00;;;;;;5111165;27;20380;-64
2023/03/18 10:32:45;;;;;;;7.32;5.30;;;15.60;99.90;;;;;;5070564;28;20884;-64
2023/03/18 10:35:42;;;;;;;10.57;5.40;;;15.80;99.90;;;;;;5070470;28;20090;-64
2023/03/18 10:38:22;;;;;;;7.70;4.57;;;16.00;8.50;;;;;;5070602;28;20386;-65
2023/03/18 10:40:48;;;;;;;5.85;4.35;;;16.10;1.00;;;;;;5070657;28;20052;-64
2023/03/18 10:43:18;;;;;;;6.03;4.40;;;16.50;99.90;;;;;;5070599;28;20067;-66
2023/03/18 10:45:45;;;;;;;5.90;4.35;;;16.50;1.00;;;;;;5070274;28;20072;-64
2023/03/18 10:48:24;;;;;;;4.97;4.10;;;17.10;1.00;;;;;;5070607;28;20027;-64
2023/03/18 10:51:15;;;;;;;7.05;4.25;;;17.40;99.90;;;;;;5070368;28;20032;-64
2023/03/18 10:54:04;;;;;;;30.30;6.35;;;17.80;1.00;;;;;;5070024;28;20021;-64
2023/03/18 10:56:30;;;;;;;7.95;3.83;;;18.20;99.90;;;;;;5070376;28;20036;-65
2023/03/18 10:58:56;;;;;;;5.70;4.00;;;18.30;1.00;;;;;;5070396;28;20428;-65
2023/03/18 11:01:24;;;;;;;4.38;3.58;;;18.50;99.90;;;;;;5069780;28;20390;-65
2023/03/18 11:04:00;;;;;;;7.15;4.10;;;18.40;1.00;;;;;;5070121;28;20029;-64
2023/03/18 11:06:48;;;;;;;6.32;3.97;;;18.00;99.90;;;;;;5069671;28;20028;-65
2023/03/18 11:09:18;;;;;;;6.40;3.63;;;18.30;99.90;;;;;;5070020;28;20027;-64
2023/03/18 11:11:48;;;;;;;5.03;3.90;;;18.40;1.00;;;;;;5069725;28;20029;-65
2023/03/18 11:14:19;;;;;;;10.88;4.30;;;18.50;99.90;;;;;;5069897;28;20021;-64
2023/03/18 11:16:55;;;;;;;5.43;4.20;;;18.50;24.30;;;;;;5069694;28;20073;-64
2023/03/18 11:19:38;;;;;;;6.45;4.38;;;18.50;1.00;;;;;;5069811;28;20025;-64
2023/03/18 11:22:17;;;;;;;13.63;4.82;;;18.10;15.40;;;;;;5069873;28;20051;-64
2023/03/18 11:24:42;;;;;;;6.68;4.30;;;17.90;99.90;;;;;;5069575;28;20541;-64
2023/03/18 11:29:58;;;;;;;6.25;4.10;;;18.10;39.10;;;;;;5111156;27;20404;-65
2023/03/18 11:32:28;;;;;;;7.38;4.43;;;18.60;99.90;;;;;;5111351;28;20481;-64
2023/03/18 11:34:56;;;;;;;8.85;4.38;;;18.60;1.00;;;;;;5111247;28;20185;-65
2023/03/18 11:37:30;;;;;;;6.63;4.10;;;18.40;1.00;;;;;;5110625;28;20020;-64
2023/03/18 11:40:06;;;;;;;;;;;18.60;1.00;;;;;;5111533;28;20054;-64
2023/03/18 11:42:31;;;;;;;6.28;4.05;;;18.00;1.00;;;;;;5110871;28;19983;-64
2023/03/18 11:45:01;;;;;;;5.43;3.50;;;18.30;1.00;;;;;;5110836;28;20078;-64
2023/03/18 11:47:31;;;;;;;4.60;3.38;;;18.10;99.90;;;;;;5109458;28;20024;-67
2023/03/18 11:50:04;;;;;;;5.80;3.47;;;18.50;99.90;;;;;;5110689;28;20044;-64
2023/03/18 11:53:03;;;;;;;6.10;3.80;;;18.40;99.90;;;;;;5111046;28;20070;-64
2023/03/18 11:55:42;;;;;;;5.20;3.80;;;18.10;99.90;;;;;;5110800;28;20024;-64
2023/03/18 12:01:22;;;;;;;4.22;3.30;;;18.20;99.90;;;;;;5090817;27;20373;-63
2023/03/18 12:04:28;;;;;;;3.90;3.08;;;18.50;99.90;;;;;;5090901;28;20428;-64
2023/03/18 12:07:11;;;;;;;4.03;2.83;;;18.40;99.90;;;;;;5090265;28;20032;-64
2023/03/18 12:12:52;;;;;;;6.80;3.35;;;18.30;29.90;;;;;;5090852;28;20798;-65
2023/03/18 12:15:43;;;;;;;3.63;3.33;;;18.30;99.90;;;;;;5090777;28;20482;-64
2023/03/18 12:21:24;;;;;;;5.55;3.28;;;18.40;1.00;;;;;;5070605;28;20945;-64
2023/03/18 12:24:16;;;;;;;4.28;3.17;;;18.20;1.00;;;;;;5070164;28;20129;-65
2023/03/18 12:27:11;;;;;;;3.42;3.13;;;18.20;99.90;;;;;;5070492;28;20050;-65
2023/03/18 12:32:48;;;;;;;3.63;3.25;;;18.40;99.90;;;;;;5111042;27;20133;-64
2023/03/18 12:35:35;;;;;;;4.10;3.30;;;18.50;1.00;;;;;;5111314;28;20043;-64
2023/03/18 12:38:30;;;;;;;5.03;3.33;;;18.20;1.00;;;;;;5111064;28;20024;-64
2023/03/18 12:44:17;;;;;;;6.45;3.97;;;18.50;1.00;;;;;;5070492;28;20389;-65
2023/03/18 12:46:55;;;;;;;4.10;3.70;;;18.40;1.00;;;;;;5070329;28;20043;-64
2023/03/18 12:49:30;;;;;;;6.93;3.60;;;18.30;1.00;;;;;;5070624;28;20032;-64
2023/03/18 12:52:03;;;;;;;7.10;3.47;;;18.30;1.00;;;;;;5070596;28;20086;-64
2023/03/18 12:54:38;;;;;;;4.35;3.00;;;18.60;1.00;;;;;;5070728;28;20032;-64
2023/03/18 12:57:11;;;;;;;4.38;3.25;;;18.70;11.50;;;;;;5070501;28;20479;-64
2023/03/18 12:59:43;;;;;;;4.72;2.63;;;18.80;99.90;;;;;;5070530;28;20025;-64
2023/03/18 13:02:25;;;;;;;5.20;3.00;;;18.50;1.00;;;;;;5070255;28;20375;-64
2023/03/18 13:04:56;;;;;;;4.28;2.72;;;18.60;99.90;;;;;;5070308;28;20383;-64
2023/03/18 13:07:35;;;;;;;2.80;2.60;;;18.60;99.90;;;;;;5070291;28;20048;-64
2023/03/18 13:10:16;;;;;;;4.45;2.58;;;18.70;99.90;;;;;;5069619;28;20025;-64
2023/03/18 13:12:43;;;;;;;3.35;2.33;;;18.60;99.90;;;;;;5069815;28;20033;-64
2023/03/18 13:15:27;;;;;;;3.30;1.90;;;18.60;99.90;;;;;;5069582;28;20028;-64
2023/03/18 13:17:58;;;;;;;3.97;2.15;;;18.50;99.90;;;;;;5070054;28;20114;-64
2023/03/18 13:20:29;;;;;;;4.38;2.55;;;18.50;99.90;;;;;;5070130;28;20052;-64
2023/03/18 13:23:23;;;;;;;3.08;2.65;;;18.50;99.90;;;;;;5069769;28;20025;-64
2023/03/18 13:25:55;;;;;;;;;;;18.30;99.90;;;;;;5070141;28;20021;-64
2023/03/18 13:29:01;;;;;;;3.17;2.10;;;18.00;99.90;;;;;;5069678;28;19905;-64
2023/03/18 13:32:06;;;;;;;3.25;2.03;;;18.10;99.90;;;;;;5069393;28;20062;-64